Orbital elements of FENGYUN 1C DEB
| Launched | 9 May 1999 |
| Flight ended | – |
| Launch site | Taiyuan Space Center, PRC |
| Owner | People's Republic of China |
| NORAD ID | 30265 |
| Date fetched |
Epoch osculation |
Inc. [°] |
Ecc. | RA asc node [hr] |
Arg Peri. [°] |
Mean anom [°] |
Mean motion [rev/day] |
Abs. mag |
| Date fetched |
Epoch osculation |
Inc. [°] |
Ecc. | RA asc node [hr] |
Arg Peri. [°] |
Mean anom [°] |
Mean motion [rev/day] |
Abs. mag |
| 2026 May 01 17:56 | 2026 Apr 30 07:04:00 | 98.6682 | 0.00249 | 16.0483 | 305.4999 | 83.8843 | 14.62146 | – |
| 2026 Apr 30 17:56 | 2026 Apr 30 07:04:00 | 98.6682 | 0.00249 | 16.0483 | 305.4999 | 83.8843 | 14.62146 | – |
| 2026 Apr 29 17:57 | 2026 Apr 24 06:39:37 | 98.6670 | 0.00249 | 15.6277 | 324.9993 | 83.8843 | 14.62146 | – |
| 2026 Apr 28 17:56 | 2026 Apr 24 06:39:37 | 98.6670 | 0.00249 | 15.6277 | 324.9993 | 83.8843 | 14.62146 | – |
| 2026 Apr 27 17:58 | 2026 Apr 24 06:39:37 | 98.6670 | 0.00249 | 15.6277 | 324.9993 | 83.8843 | 14.62146 | – |
| 2026 Apr 26 17:58 | 2026 Apr 24 06:39:37 | 98.6670 | 0.00249 | 15.6277 | 324.9993 | 83.8843 | 14.62146 | – |
| 2026 Apr 25 17:58 | 2026 Apr 24 06:39:37 | 98.6670 | 0.00249 | 15.6277 | 324.9993 | 83.8843 | 14.62146 | – |
| 2026 Apr 24 17:59 | 2026 Apr 24 06:39:37 | 98.6670 | 0.00249 | 15.6277 | 324.9993 | 83.8843 | 14.62146 | – |
| 2026 Apr 23 17:57 | 2026 Apr 17 06:59:19 | 98.6663 | 0.00251 | 15.1394 | 347.7538 | 83.8843 | 14.62146 | – |
| 2026 Apr 22 17:57 | 2026 Apr 17 06:59:19 | 98.6663 | 0.00251 | 15.1394 | 347.7538 | 83.8843 | 14.62146 | – |
| 2026 Apr 21 17:57 | 2026 Apr 17 06:59:19 | 98.6663 | 0.00251 | 15.1394 | 347.7538 | 83.8843 | 14.62146 | – |
| 2026 Apr 20 17:57 | 2026 Apr 17 06:59:19 | 98.6663 | 0.00251 | 15.1394 | 347.7538 | 83.8843 | 14.62146 | – |
| 2026 Apr 19 17:58 | 2026 Apr 17 06:59:19 | 98.6663 | 0.00251 | 15.1394 | 347.7538 | 83.8843 | 14.62146 | – |
| 2026 Apr 18 17:56 | 2026 Apr 13 07:41:44 | 98.6645 | 0.00253 | 14.8620 | 0.6444 | 83.8843 | 14.62146 | – |
| 2026 Apr 16 17:57 | 2026 Apr 13 07:41:44 | 98.6645 | 0.00253 | 14.8620 | 0.6444 | 83.8843 | 14.62146 | – |
| 2026 Apr 14 17:57 | 2026 Apr 13 07:41:44 | 98.6645 | 0.00253 | 14.8620 | 0.6444 | 83.8843 | 14.62146 | – |
| 2026 Apr 13 17:57 | 2026 Apr 13 07:41:44 | 98.6645 | 0.00253 | 14.8620 | 0.6444 | 83.8843 | 14.62146 | – |
| 2026 Apr 12 17:57 | 2026 Apr 07 07:09:11 | 98.6650 | 0.00257 | 14.4412 | 20.1388 | 83.8843 | 14.62146 | – |
| 2026 Apr 11 17:57 | 2026 Apr 07 07:09:11 | 98.6650 | 0.00257 | 14.4412 | 20.1388 | 83.8843 | 14.62146 | – |
| 2026 Apr 10 17:58 | 2026 Apr 07 07:09:11 | 98.6650 | 0.00257 | 14.4412 | 20.1388 | 83.8843 | 14.62146 | – |
| 2026 Apr 09 18:01 | 2026 Apr 07 07:09:11 | 98.6650 | 0.00257 | 14.4412 | 20.1388 | 83.8843 | 14.62146 | – |
| 2026 Apr 08 17:57 | 2026 Apr 07 07:09:11 | 98.6650 | 0.00257 | 14.4412 | 20.1388 | 83.8843 | 14.62146 | – |
| 2026 Apr 07 17:57 | 2026 Apr 02 07:13:26 | 98.6647 | 0.00260 | 14.0923 | 36.0982 | 83.8843 | 14.62146 | – |
| 2026 Apr 06 17:57 | 2026 Apr 02 07:13:26 | 98.6647 | 0.00260 | 14.0923 | 36.0982 | 83.8843 | 14.62146 | – |
| 2026 Apr 05 17:56 | 2026 Apr 02 07:13:26 | 98.6647 | 0.00260 | 14.0923 | 36.0982 | 83.8843 | 14.62146 | – |
| 2026 Apr 04 17:57 | 2026 Apr 02 07:13:26 | 98.6647 | 0.00260 | 14.0923 | 36.0982 | 83.8843 | 14.62146 | – |